Time;durP1;ratioP1;P1;durP2;ratioP2;P2;SDS_P1;SDS_P2;PMS_P1;PMS_P2;Temp;Humidity;BMP_temperature;BMP_pressure;BME280_temperature;BME280_humidity;BME280_pressure;Samples;Min_cycle;Max_cycle;Signal;HPM_P1;HPM_P2
2023/05/07 00:00:33;;;;;;;11.00;9.88;;;;;;;14.23;100.00;101556.28;5098836;28;20027;-75
2023/05/07 00:02:58;;;;;;;8.23;6.45;;;;;;;14.28;100.00;101564.72;5098547;28;20024;-75
2023/05/07 00:05:24;;;;;;;;;;;;;;;14.40;100.00;101562.69;5098198;28;20401;-75
2023/05/07 00:07:50;;;;;;;6.28;5.70;;;;;;;14.27;100.00;101557.69;5100848;28;19946;-75
2023/05/07 00:10:15;;;;;;;;;;;;;;;14.43;100.00;101564.22;5102202;28;20034;-75
2023/05/07 00:12:40;;;;;;;5.97;5.37;;;;;;;14.34;100.00;101555.22;5102099;28;20446;-75
2023/05/07 00:15:07;;;;;;;;;;;;;;;14.44;100.00;101550.66;5096298;28;20285;-74
2023/05/07 00:17:33;;;;;;;5.90;5.30;;;;;;;14.33;100.00;101556.25;5088948;28;19919;-75
2023/05/07 00:19:58;;;;;;;6.70;6.00;;;;;;;14.35;100.00;101548.88;5091545;28;20057;-75
2023/05/07 00:22:23;;;;;;;7.22;5.53;;;;;;;14.34;100.00;101545.34;5095898;28;20046;-74
2023/05/07 00:24:49;;;;;;;7.32;5.80;;;;;;;14.31;100.00;101540.28;5100643;28;20023;-74
2023/05/07 00:27:14;;;;;;;;;;;;;;;14.46;100.00;101546.00;5099716;28;20092;-74
2023/05/07 00:29:39;;;;;;;7.28;5.57;;;;;;;14.33;100.00;101540.97;5097336;28;20729;-74
2023/05/07 00:32:05;;;;;;;6.30;5.72;;;;;;;14.31;100.00;101542.13;5102992;28;20024;-74
2023/05/07 00:34:30;;;;;;;7.28;6.28;;;;;;;14.29;100.00;101549.50;5095164;28;20092;-74
2023/05/07 00:36:55;;;;;;;;;;;;;;;14.45;100.00;101540.78;5089446;28;20114;-74
2023/05/07 00:39:21;;;;;;;6.40;5.87;;;;;;;14.29;100.00;101536.09;5092222;28;19920;-74
2023/05/07 00:41:47;;;;;;;6.53;5.90;;;;;;;14.29;100.00;101542.28;5094702;28;20119;-74
2023/05/07 00:44:12;;;;;;;6.65;5.70;;;;;;;14.27;100.00;101535.34;5097101;28;20404;-74
2023/05/07 00:46:37;;;;;;;;;;;;;;;14.42;100.00;101536.53;5101055;28;20031;-75
2023/05/07 00:49:02;;;;;;;7.93;6.25;;;;;;;14.29;100.00;101528.88;5101840;28;19923;-75
2023/05/07 00:51:28;;;;;;;;;;;;;;;14.44;100.00;101525.66;5091796;28;20028;-75
2023/05/07 00:53:54;;;;;;;6.40;5.80;;;;;;;14.34;100.00;101528.38;5090535;28;19930;-75
2023/05/07 00:56:22;;;;;;;;;;;;;;;14.45;100.00;101530.88;5096416;28;20039;-75
2023/05/07 00:58:47;;;;;;;6.70;6.00;;;;;;;14.29;100.00;101530.72;5092092;28;19975;-75
2023/05/07 01:01:13;;;;;;;;;;;;;;;14.44;100.00;101533.72;5098839;28;20095;-75
2023/05/07 01:03:38;;;;;;;6.40;5.83;;;;;;;14.30;100.00;101529.69;5100670;28;19948;-75
2023/05/07 01:06:04;;;;;;;;;;;;;;;14.44;100.00;101531.88;5093275;28;20850;-75
2023/05/07 01:08:30;;;;;;;7.32;6.63;;;;;;;14.35;100.00;101524.72;5097286;28;19922;-74
2023/05/07 01:10:57;;;;;;;8.18;6.90;;;;;;;14.29;100.00;101536.91;5108198;27;20043;-74
2023/05/07 01:13:24;;;;;;;7.50;6.80;;;;;;;14.29;100.00;101536.09;5100832;28;20020;-74
2023/05/07 01:15:49;;;;;;;10.55;7.40;;;;;;;14.31;100.00;101534.09;5101873;28;20027;-74
2023/05/07 01:18:15;;;;;;;;;;;;;;;14.44;100.00;101531.88;5093838;28;20034;-75
2023/05/07 01:20:41;;;;;;;8.75;7.95;;;;;;;14.29;100.00;101528.88;5095894;27;19934;-75
2023/05/07 01:23:06;;;;;;;8.23;7.22;;;;;;;14.31;100.00;101526.03;5102079;27;20305;-74
2023/05/07 01:25:32;;;;;;;;;;;;;;;14.42;100.00;101512.38;5101155;27;20071;-75
2023/05/07 01:27:59;;;;;;;9.48;7.35;;;;;;;14.28;100.00;101512.91;5105296;27;19946;-75
2023/05/07 01:30:25;;;;;;;8.23;7.43;;;;;;;14.26;100.00;101502.31;5103208;27;20397;-75
2023/05/07 01:32:56;;;;;;;8.60;7.47;;;;;;;14.22;100.00;101497.41;5110368;27;20092;-75
2023/05/07 01:35:26;;;;;;;8.55;7.85;;;;;;;14.23;100.00;101501.78;5093092;27;20384;-75
2023/05/07 01:37:53;;;;;;;9.15;8.18;;;;;;;14.21;100.00;101499.25;5095073;27;20107;-75
2023/05/07 01:40:18;;;;;;;9.23;8.43;;;;;;;14.16;100.00;101493.47;5095375;28;20027;-75
2023/05/07 01:42:45;;;;;;;;;;;;;;;14.33;100.00;101506.09;5096573;27;20539;-75
2023/05/07 01:45:11;;;;;;;9.07;8.25;;;;;;;14.19;100.00;101501.25;5117105;27;19915;-75
2023/05/07 01:47:37;;;;;;;10.98;8.50;;;;;;;14.18;100.00;101499.53;5101584;27;20042;-76
2023/05/07 01:50:03;;;;;;;;;;;;;;;14.33;100.00;101495.34;5103152;28;20042;-75
2023/05/07 01:52:28;;;;;;;9.43;8.48;;;;;;;14.14;100.00;101492.78;5095676;27;20026;-75
2023/05/07 01:54:53;;;;;;;;;;;;;;;14.31;100.00;101493.84;5098077;28;20524;-75
2023/05/07 01:57:19;;;;;;;12.33;9.27;;;;;;;14.20;100.00;101489.53;5096924;27;20193;-75
2023/05/07 01:59:44;;;;;;;;;;;;;;;14.29;100.00;101493.97;5096740;28;20355;-76
2023/05/07 02:02:09;;;;;;;13.83;11.10;;;;;;;14.13;100.00;101493.78;5102147;28;19919;-75
2023/05/07 02:04:35;;;;;;;11.10;9.98;;;;;;;14.11;100.00;101493.94;5101731;27;20027;-75
2023/05/07 02:07:00;;;;;;;;;;;;;;;14.26;100.00;101488.06;5104492;28;20028;-75
2023/05/07 02:09:25;;;;;;;12.70;11.48;;;;;;;14.17;100.00;101490.66;5094312;28;20288;-74
2023/05/07 02:11:50;;;;;;;;;;;;;;;14.25;100.00;101495.25;5097103;28;20024;-74
2023/05/07 02:14:15;;;;;;;13.67;12.27;;;;;;;14.09;100.00;101490.53;5098499;28;19923;-74
2023/05/07 02:16:41;;;;;;;13.55;12.25;;;;;;;14.06;100.00;101490.88;5100290;28;20039;-74
2023/05/07 02:19:06;;;;;;;13.93;12.48;;;;;;;14.08;100.00;101491.56;5104834;28;20022;-75
2023/05/07 02:21:32;;;;;;;;;;;;;;;14.20;100.00;101497.56;5101648;27;20107;-74
2023/05/07 02:23:57;;;;;;;22.60;20.27;;;;;;;14.09;100.00;101495.06;5098734;28;20338;-75
2023/05/07 02:26:22;;;;;;;;;;;;;;;14.20;100.00;101500.25;5095009;28;20766;-75
2023/05/07 02:28:47;;;;;;;15.93;14.30;;;;;;;14.07;100.00;101499.75;5097058;27;19912;-75
2023/05/07 02:31:13;;;;;;;;;;;;;;;14.21;100.00;101506.47;5101599;27;20285;-75
2023/05/07 02:33:38;;;;;;;14.90;13.30;;;;;;;14.10;100.00;101505.66;5097841;28;19968;-75
2023/05/07 02:36:10;;;;;;;15.65;14.23;;;;;;;14.10;100.00;101510.19;5100119;27;20584;-75
2023/05/07 02:38:36;;;;;;;18.80;14.45;;;;;;;14.09;100.00;101505.81;5093105;28;20054;-75
2023/05/07 02:41:01;;;;;;;;;;;;;;;14.20;100.00;101502.94;5099051;27;20024;-75
2023/05/07 02:43:26;;;;;;;16.58;14.95;;;;;;;14.09;100.00;101503.13;5096024;27;19912;-75
2023/05/07 02:46:03;;;;;;;14.60;13.15;;;;;;;14.14;100.00;101506.22;5101282;28;20583;-75
2023/05/07 02:48:28;;;;;;;16.67;14.98;;;;;;;14.08;100.00;101499.63;5100349;27;20093;-75
2023/05/07 02:50:53;;;;;;;;;;;;;;;14.19;100.00;101503.91;5101198;28;20079;-75
2023/05/07 02:53:19;;;;;;;16.17;14.70;;;;;;;14.10;100.00;101510.19;5102219;28;20296;-75
2023/05/07 02:55:44;;;;;;;;;;;;;;;14.21;100.00;101512.66;5096224;28;20285;-75
2023/05/07 02:58:09;;;;;;;15.57;14.10;;;;;;;14.11;100.00;101511.88;5097412;28;20361;-75
2023/05/07 03:00:35;;;;;;;16.52;14.93;;;;;;;14.07;100.00;101511.31;5101801;27;20115;-75
2023/05/07 03:03:00;;;;;;;17.13;15.50;;;;;;;14.08;100.00;101507.66;5103709;28;20609;-75
2023/05/07 03:05:25;;;;;;;;;;;;;;;14.19;100.00;101499.38;5100575;28;20027;-74
2023/05/07 03:07:50;;;;;;;18.17;16.33;;;;;;;14.10;100.00;101496.78;5099042;28;19916;-74
2023/05/07 03:10:16;;;;;;;;;;;;;;;14.21;100.00;101495.72;5096927;27;20304;-74
2023/05/07 03:12:41;;;;;;;19.00;17.08;;;;;;;14.13;100.00;101496.47;5095728;28;19916;-74
2023/05/07 03:15:07;;;;;;;20.52;18.67;;;;;;;14.09;100.00;101487.88;5099672;28;20698;-74
2023/05/07 03:17:33;;;;;;;21.77;19.67;;;;;;;14.10;100.00;101499.47;5096517;28;20043;-74
2023/05/07 03:19:58;;;;;;;;;;;;;;;14.21;100.00;101504.59;5100417;28;20024;-74
2023/05/07 03:22:23;;;;;;;21.95;19.80;;;;;;;14.12;100.00;101498.31;5100635;27;19916;-74
2023/05/07 03:24:49;;;;;;;22.70;20.55;;;;;;;14.14;100.00;101495.47;5100735;28;20052;-74
2023/05/07 03:27:14;;;;;;;;;;;;;;;14.23;100.00;101494.56;5095500;28;20030;-74
2023/05/07 03:29:39;;;;;;;22.88;20.33;;;;;;;14.14;100.00;101487.44;5094853;28;19920;-74
2023/05/07 03:32:05;;;;;;;23.48;21.13;;;;;;;14.09;100.00;101485.19;5097571;28;20055;-76
2023/05/07 03:34:31;;;;;;;24.88;22.27;;;;;;;14.09;100.00;101487.03;5100244;28;20030;-75
2023/05/07 03:36:56;;;;;;;;;;;;;;;14.23;100.00;101488.38;5097910;28;20035;-75
2023/05/07 03:39:21;;;;;;;23.20;20.75;;;;;;;14.14;100.00;101484.75;5093504;27;20030;-75
2023/05/07 03:41:46;;;;;;;;;;;;;;;14.25;100.00;101483.69;5093849;27;20058;-75
2023/05/07 03:44:12;;;;;;;23.13;20.90;;;;;;;14.17;100.00;101489.81;5099919;28;19915;-75
2023/05/07 03:46:37;;;;;;;;;;;;;;;14.25;100.00;101487.22;5101002;28;20103;-75
2023/05/07 03:49:02;;;;;;;23.80;21.38;;;;;;;14.11;100.00;101483.22;5101919;28;19938;-74
2023/05/07 03:51:28;;;;;;;;;;;;;;;14.24;100.00;101487.38;5100146;28;20220;-75
2023/05/07 03:53:53;;;;;;;24.30;21.70;;;;;;;14.12;100.00;101482.22;5092347;27;20006;-75
2023/05/07 03:56:18;;;;;;;;;;;;;;;14.25;100.00;101494.41;5094035;28;20377;-75
2023/05/07 03:58:44;;;;;;;23.58;21.27;;;;;;;14.11;100.00;101491.28;5101448;28;19912;-74
2023/05/07 04:01:09;;;;;;;24.55;22.25;;;;;;;14.10;100.00;101488.72;5093683;28;20176;-75
2023/05/07 04:03:35;;;;;;;;;;;;;;;14.24;100.00;101495.44;5091794;28;20508;-75
2023/05/07 04:06:00;;;;;;;23.92;21.40;;;;;;;14.09;100.00;101501.28;5096114;28;19911;-73
2023/05/07 04:08:25;;;;;;;25.02;22.52;;;;;;;14.08;100.00;101506.81;5097384;27;20028;-73
2023/05/07 04:10:54;;;;;;;;;;;;;;;14.21;100.00;101517.19;5097738;28;20063;-72
2023/05/07 04:13:19;;;;;;;26.70;24.20;;;;;;;14.09;100.00;101509.31;5092694;28;19923;-72
2023/05/07 04:15:46;;;;;;;;;;;;;;;14.19;100.00;101514.66;5095908;28;20548;-73
2023/05/07 04:18:11;;;;;;;25.95;23.35;;;;;;;14.06;100.00;101512.34;5096301;28;19911;-71
2023/05/07 04:20:36;;;;;;;;;;;;;;;14.21;100.00;101519.88;5099538;28;20469;-71
2023/05/07 04:23:02;;;;;;;25.23;22.70;;;;;;;14.07;100.00;101518.53;5100515;28;19915;-73
2023/05/07 04:25:27;;;;;;;;;;;;;;;14.19;100.00;101512.81;5096590;28;20789;-74
2023/05/07 04:27:52;;;;;;;27.08;24.27;;;;;;;14.11;100.00;101518.09;5100552;28;19937;-73
2023/05/07 04:30:17;;;;;;;;;;;;;;;14.24;100.00;101514.22;5092126;28;20032;-74
2023/05/07 04:32:44;;;;;;;25.90;22.97;;;;;;;14.13;100.00;101518.78;5100090;28;19916;-74
2023/05/07 04:35:09;;;;;;;28.88;25.90;;;;;;;14.14;100.00;101516.94;5100195;28;20384;-74
2023/05/07 04:37:35;;;;;;;;;;;;;;;14.26;100.00;101513.06;5099243;28;20434;-75
2023/05/07 04:40:01;;;;;;;28.05;25.17;;;;;;;14.13;100.00;101513.41;5092895;28;19908;-75
2023/05/07 04:42:27;;;;;;;27.55;24.88;;;;;;;14.15;100.00;101515.97;5091795;28;20076;-73
2023/05/07 04:44:53;;;;;;;28.17;25.45;;;;;;;14.15;100.00;101514.09;5097583;28;20016;-73
2023/05/07 04:47:18;;;;;;;28.95;26.02;;;;;;;14.18;100.00;101515.63;5097367;28;20073;-73
2023/05/07 04:49:44;;;;;;;;;;;;;;;14.29;100.00;101515.44;5097673;28;20054;-73
2023/05/07 04:52:09;;;;;;;27.67;24.98;;;;;;;14.19;100.00;101514.66;5096947;28;19916;-73
2023/05/07 04:54:35;;;;;;;;;;;;;;;14.30;100.00;101527.84;5103157;28;20032;-74
2023/05/07 04:57:00;;;;;;;28.40;25.60;;;;;;;14.21;100.00;101530.59;5098993;28;19935;-73
2023/05/07 04:59:25;;;;;;;;;;;;;;;14.33;100.00;101526.72;5099826;28;20486;-74
2023/05/07 05:01:50;;;;;;;27.00;24.33;;;;;;;14.25;100.00;101532.81;5112648;27;19907;-73
2023/05/07 05:04:16;;;;;;;29.33;26.35;;;;;;;14.23;100.00;101529.44;5103583;27;20027;-74
2023/05/07 05:06:41;;;;;;;;;;;;;;;14.38;100.00;101535.16;5108301;28;20081;-74
2023/05/07 05:09:06;;;;;;;28.75;25.83;;;;;;;14.32;100.00;101538.44;5109947;27;19907;-74
2023/05/07 05:11:32;;;;;;;27.77;25.00;;;;;;;14.30;100.00;101527.84;5109091;27;21113;-74
2023/05/07 05:13:59;;;;;;;27.13;24.60;;;;;;;14.33;100.00;101535.59;5115253;27;20027;-74
2023/05/07 05:16:24;;;;;;;28.10;25.25;;;;;;;14.37;100.00;101528.97;5112050;27;20501;-74
2023/05/07 05:18:51;;;;;;;;;;;;;;;14.50;100.00;101536.66;5094631;28;20118;-74
2023/05/07 05:21:17;;;;;;;29.15;26.05;;;;;;;14.43;100.00;101542.75;5108893;28;19999;-73
2023/05/07 05:23:42;;;;;;;28.30;25.67;;;;;;;14.49;100.00;101536.78;5108413;28;20160;-73
2023/05/07 05:26:08;;;;;;;28.60;25.83;;;;;;;14.48;100.00;101535.97;5108290;28;20031;-74
2023/05/07 05:28:33;;;;;;;;;;;;;;;14.66;100.00;101546.75;5108169;28;20035;-74
2023/05/07 05:30:58;;;;;;;28.07;25.07;;;;;;;14.61;100.00;101549.03;5112325;27;19908;-74
2023/05/07 05:33:23;;;;;;;;;;;;;;;14.75;100.00;101547.66;5107522;28;20813;-74
2023/05/07 05:35:50;;;;;;;27.10;24.60;;;;;;;14.67;100.00;101548.44;5099087;28;19912;-74
2023/05/07 05:38:15;;;;;;;27.00;24.30;;;;;;;14.67;100.00;101550.25;5105365;28;20796;-74
2023/05/07 05:40:41;;;;;;;27.70;24.98;;;;;;;14.68;100.00;101549.28;5104040;28;20016;-74
2023/05/07 05:43:06;;;;;;;27.52;24.75;;;;;;;14.70;100.00;101550.81;5101683;28;20024;-74
2023/05/07 05:45:31;;;;;;;26.25;23.77;;;;;;;14.75;100.00;101553.88;5101741;27;20016;-74
2023/05/07 05:47:57;;;;;;;26.90;24.25;;;;;;;14.81;100.00;101554.25;5100277;27;20423;-74
2023/05/07 05:50:22;;;;;;;26.35;23.83;;;;;;;14.79;100.00;101561.63;5106321;28;20027;-74
2023/05/07 05:52:48;;;;;;;25.02;22.50;;;;;;;14.79;100.00;101559.78;5102539;28;20027;-74
2023/05/07 05:55:13;;;;;;;26.40;23.98;;;;;;;14.87;100.00;101556.34;5102630;27;20020;-74
2023/05/07 05:57:38;;;;;;;;;;;;;;;15.04;100.00;101557.31;5100466;27;20027;-74
2023/05/07 06:00:04;;;;;;;26.38;23.65;;;;;;;15.00;100.00;101564.00;5109158;27;19920;-73
2023/05/07 06:02:29;;;;;;;24.35;22.05;;;;;;;15.05;100.00;101559.88;5099804;28;20084;-74
2023/05/07 06:04:55;;;;;;;24.83;22.45;;;;;;;15.12;100.00;101557.41;5100491;28;20414;-73
2023/05/07 06:07:20;;;;;;;23.92;21.73;;;;;;;15.21;100.00;101556.47;5099176;27;20023;-73
2023/05/07 06:09:45;;;;;;;;;;;;;;;15.37;100.00;101560.28;5101327;27;20023;-74
2023/05/07 06:12:11;;;;;;;24.70;22.20;;;;;;;15.32;100.00;101560.75;5104884;27;20373;-74
2023/05/07 06:14:36;;;;;;;23.92;21.83;;;;;;;15.42;100.00;101560.66;5095748;28;20312;-74
2023/05/07 06:17:02;;;;;;;23.92;21.83;;;;;;;15.42;100.00;101561.50;5099353;28;20032;-73
2023/05/07 06:19:28;;;;;;;22.90;20.88;;;;;;;15.37;100.00;101555.75;5099083;28;20055;-74
2023/05/07 06:21:53;;;;;;;23.52;21.02;;;;;;;15.45;100.00;101561.19;5098214;28;20035;-74
2023/05/07 06:24:18;;;;;;;21.70;19.50;;;;;;;15.45;100.00;101553.13;5096868;27;20672;-73
2023/05/07 06:26:44;;;;;;;21.80;19.65;;;;;;;15.56;100.00;101562.78;5101274;27;20114;-73
2023/05/07 06:29:09;;;;;;;21.45;19.42;;;;;;;15.59;100.00;101551.72;5097028;28;20024;-74
2023/05/07 06:31:35;;;;;;;21.85;19.75;;;;;;;15.63;100.00;101554.94;5099498;28;20027;-74
2023/05/07 06:34:01;;;;;;;22.17;19.98;;;;;;;15.75;100.00;101553.69;5099814;28;20885;-74
2023/05/07 06:36:27;;;;;;;21.02;19.13;;;;;;;15.77;100.00;101559.75;5103764;28;20104;-74
2023/05/07 06:38:52;;;;;;;20.42;18.48;;;;;;;15.82;100.00;101559.28;5104527;28;20029;-74
2023/05/07 06:41:17;;;;;;;21.55;18.08;;;;;;;15.84;100.00;101558.09;5102683;27;20059;-74
2023/05/07 06:43:43;;;;;;;20.20;17.67;;;;;;;15.90;100.00;101561.16;5097291;28;20084;-74
2023/05/07 06:46:08;;;;;;;19.92;17.92;;;;;;;15.92;100.00;101569.91;5097153;28;20046;-74
2023/05/07 06:48:33;;;;;;;19.15;17.23;;;;;;;15.92;100.00;101569.91;5102890;28;20401;-74
2023/05/07 06:50:59;;;;;;;19.58;17.75;;;;;;;15.90;100.00;101577.31;5104512;28;20039;-73
2023/05/07 06:53:25;;;;;;;20.15;18.15;;;;;;;15.95;100.00;101572.28;5099185;28;20137;-74
2023/05/07 06:55:51;;;;;;;19.35;17.60;;;;;;;15.96;100.00;101582.91;5096825;28;20072;-74
2023/05/07 06:58:17;;;;;;;18.63;16.83;;;;;;;16.01;100.00;101577.88;5100241;28;20481;-74
2023/05/07 07:00:42;;;;;;;18.13;16.52;;;;;;;15.93;100.00;101582.38;5101527;28;20027;-74
2023/05/07 07:03:07;;;;;;;18.58;16.73;;;;;;;15.91;100.00;101579.84;5103385;28;20007;-74
2023/05/07 07:05:33;;;;;;;18.55;16.77;;;;;;;15.93;100.00;101585.06;5094229;28;20119;-74
2023/05/07 07:07:58;;;;;;;19.15;17.25;;;;;;;15.91;100.00;101581.69;5098480;28;20110;-73
2023/05/07 07:10:23;;;;;;;19.58;17.60;;;;;;;15.94;100.00;101586.75;5100263;27;20028;-74
2023/05/07 07:12:49;;;;;;;18.05;16.25;;;;;;;15.95;100.00;101578.50;5102937;28;20023;-74
2023/05/07 07:15:15;;;;;;;19.95;16.88;;;;;;;15.99;100.00;101581.75;5096587;28;20023;-74
2023/05/07 07:17:40;;;;;;;18.02;16.30;;;;;;;15.97;100.00;101581.91;5103817;28;20049;-74
2023/05/07 07:20:06;;;;;;;18.95;17.05;;;;;;;16.07;100.00;101587.16;5092049;28;20027;-73
2023/05/07 07:22:31;;;;;;;18.30;16.60;;;;;;;16.05;100.00;101591.84;5100417;27;20027;-73
2023/05/07 07:24:57;;;;;;;17.90;16.15;;;;;;;16.17;100.00;101590.56;5096476;28;20472;-73
2023/05/07 07:27:22;;;;;;;18.15;16.33;;;;;;;16.20;100.00;101589.41;5098772;28;20028;-73
2023/05/07 07:29:47;;;;;;;17.30;15.77;;;;;;;16.29;100.00;101593.00;5097296;28;20030;-73
2023/05/07 07:32:13;;;;;;;16.52;14.98;;;;;;;16.30;100.00;101590.09;5101735;28;20036;-72
2023/05/07 07:34:38;;;;;;;17.92;16.08;;;;;;;16.33;100.00;101589.78;5099228;28;20393;-73
2023/05/07 07:37:05;;;;;;;16.77;15.18;;;;;;;16.40;100.00;101598.91;5092780;28;20036;-72
2023/05/07 07:39:32;;;;;;;17.83;16.02;;;;;;;16.45;100.00;101601.97;5094402;28;20031;-73
2023/05/07 07:41:57;;;;;;;17.75;14.93;;;;;;;16.52;100.00;101593.25;5095423;27;20035;-73
2023/05/07 07:44:22;;;;;;;16.35;14.75;;;;;;;16.61;100.00;101601.16;5095548;28;20031;-73
2023/05/07 07:46:48;;;;;;;16.98;15.05;;;;;;;16.66;100.00;101602.53;5102335;28;20451;-73
2023/05/07 07:49:14;;;;;;;16.38;14.65;;;;;;;16.73;100.00;101604.41;5100593;28;20046;-73
2023/05/07 07:51:40;;;;;;;16.60;15.10;;;;;;;16.77;100.00;101600.38;5103109;27;20016;-73
2023/05/07 07:54:05;;;;;;;15.38;13.90;;;;;;;16.85;100.00;101602.28;5092943;28;20035;-73
2023/05/07 07:56:33;;;;;;;15.50;13.77;;;;;;;16.87;100.00;101602.97;5092005;28;20329;-73
2023/05/07 07:58:58;;;;;;;16.70;14.90;;;;;;;16.95;100.00;101600.28;5094487;28;20035;-73
2023/05/07 08:01:24;;;;;;;15.65;14.05;;;;;;;17.01;100.00;101602.31;5094432;28;20028;-73
2023/05/07 08:03:50;;;;;;;15.35;13.85;;;;;;;17.03;100.00;101604.00;5102101;28;20115;-73
2023/05/07 08:06:15;;;;;;;15.00;13.65;;;;;;;17.26;100.00;101596.09;5099480;27;20020;-73
2023/05/07 08:08:40;;;;;;;15.80;14.20;;;;;;;17.34;100.00;101593.41;5097102;28;20024;-73
2023/05/07 08:11:06;;;;;;;18.30;16.13;;;;;;;17.47;100.00;101599.13;5101764;28;20101;-73
2023/05/07 08:13:31;;;;;;;17.42;15.52;;;;;;;17.71;100.00;101598.25;5102087;28;20024;-73
2023/05/07 08:15:56;;;;;;;15.32;13.88;;;;;;;17.87;100.00;101601.97;5090893;28;20298;-72
2023/05/07 08:18:24;;;;;;;13.82;12.48;;;;;;;17.99;100.00;101591.63;5094512;28;20404;-73
2023/05/07 08:20:50;;;;;;;14.20;12.88;;;;;;;18.17;100.00;101597.66;5094752;28;20027;-72
2023/05/07 08:23:15;;;;;;;13.13;11.98;;;;;;;18.27;100.00;101603.69;5097650;28;20015;-73
2023/05/07 08:25:42;;;;;;;13.68;12.32;;;;;;;18.51;100.00;101610.00;5090323;28;20047;-73
2023/05/07 08:28:07;;;;;;;14.10;12.77;;;;;;;18.62;100.00;101604.22;5086816;28;20052;-73
2023/05/07 08:30:33;;;;;;;13.38;12.07;;;;;;;18.75;100.00;101605.50;5098751;28;20584;-73
2023/05/07 08:32:58;;;;;;;13.55;11.82;;;;;;;18.88;100.00;101606.63;5099303;28;20171;-73
2023/05/07 08:35:25;;;;;;;14.10;11.45;;;;;;;18.85;100.00;101601.59;5106184;27;20034;-74
2023/05/07 08:37:50;;;;;;;12.70;11.40;;;;;;;19.01;100.00;101616.00;5100159;28;20051;-73
2023/05/07 08:40:16;;;;;;;15.27;12.18;;;;;;;18.85;100.00;101609.69;5102016;28;20047;-74
2023/05/07 08:42:42;;;;;;;13.32;12.00;;;;;;;18.96;100.00;101611.13;5096558;28;20028;-74
2023/05/07 08:45:13;;;;;;;12.30;11.13;;;;;;;19.17;100.00;101607.78;5100650;27;20040;-74
2023/05/07 08:47:46;;;;;;;11.70;10.40;;;;;;;19.20;100.00;101612.81;5105072;27;20076;-74
2023/05/07 08:50:12;;;;;;;12.93;11.63;;;;;;;19.35;100.00;101614.75;5105565;28;20027;-74
2023/05/07 08:52:39;;;;;;;12.65;11.43;;;;;;;19.33;100.00;101612.22;5102927;27;20103;-73
2023/05/07 08:55:06;;;;;;;13.43;12.02;;;;;;;19.35;100.00;101618.28;5106031;28;20032;-73
2023/05/07 08:57:31;;;;;;;13.70;12.40;;;;;;;19.39;100.00;101614.19;5089100;27;20039;-74
2023/05/07 08:59:56;;;;;;;13.65;12.25;;;;;;;19.50;100.00;101623.75;5099038;27;20028;-73
2023/05/07 09:02:22;;;;;;;13.85;12.52;;;;;;;19.51;100.00;101619.16;5100579;27;20055;-73
2023/05/07 09:04:47;;;;;;;13.35;12.10;;;;;;;19.58;100.00;101610.16;5100779;28;20019;-73
2023/05/07 09:07:13;;;;;;;14.27;12.77;;;;;;;19.62;100.00;101616.88;5100054;28;20059;-73
2023/05/07 09:09:38;;;;;;;14.18;12.65;;;;;;;19.69;100.00;101621.53;5101529;28;20083;-73
2023/05/07 09:12:03;;;;;;;13.32;11.93;;;;;;;19.70;100.00;101615.94;5103736;27;20032;-73
2023/05/07 09:14:30;;;;;;;15.60;14.02;;;;;;;19.69;100.00;101618.81;5099749;28;20491;-73
2023/05/07 09:16:56;;;;;;;13.90;12.63;;;;;;;19.85;100.00;101618.72;5097053;27;20275;-73
2023/05/07 09:19:25;;;;;;;13.95;12.65;;;;;;;19.81;100.00;101620.09;5101062;27;20023;-73
2023/05/07 09:22:05;;;;;;;13.95;12.65;;;;;;;19.68;100.00;101623.41;5105005;28;20031;-73
2023/05/07 09:24:34;;;;;;;13.80;12.50;;;;;;;19.72;100.00;101610.34;5098695;27;20476;-73
2023/05/07 09:27:01;;;;;;;13.02;11.85;;;;;;;19.77;100.00;101621.50;5096963;28;20096;-73
2023/05/07 09:29:28;;;;;;;14.38;12.77;;;;;;;19.93;100.00;101624.06;5100087;28;20489;-73
2023/05/07 09:31:54;;;;;;;14.30;13.00;;;;;;;20.01;100.00;101620.41;5096242;27;20400;-73
2023/05/07 09:34:19;;;;;;;14.55;13.23;;;;;;;19.87;100.00;101618.53;5101732;27;21386;-73
2023/05/07 09:36:44;;;;;;;13.60;12.40;;;;;;;19.97;100.00;101622.66;5104458;27;20098;-73
2023/05/07 09:39:10;;;;;;;14.88;13.40;;;;;;;20.14;100.00;101625.16;5102162;27;20028;-73
2023/05/07 09:41:46;;;;;;;13.88;12.57;;;;;;;20.10;100.00;101626.56;5099607;28;20039;-73
2023/05/07 09:44:14;;;;;;;13.82;12.52;;;;;;;20.05;100.00;101627.13;5101574;27;20026;-73
2023/05/07 09:46:42;;;;;;;14.68;13.10;;;;;;;20.13;100.00;101628.91;5100076;27;20081;-73
2023/05/07 09:49:13;;;;;;;13.80;12.48;;;;;;;20.21;100.00;101617.97;5098615;27;20161;-73
2023/05/07 09:51:48;;;;;;;14.35;13.07;;;;;;;20.34;100.00;101618.16;5096070;28;20542;-73
2023/05/07 09:54:14;;;;;;;14.43;12.93;;;;;;;20.42;100.00;101621.78;5102057;27;20097;-73
2023/05/07 09:56:41;;;;;;;14.73;13.18;;;;;;;20.47;100.00;101627.47;5100667;28;20035;-73
2023/05/07 09:59:08;;;;;;;19.92;17.92;;;;;;;20.51;100.00;101628.78;5094859;27;20042;-73
2023/05/07 10:01:36;;;;;;;13.65;12.35;;;;;;;20.54;100.00;101623.81;5091721;27;20944;-73
2023/05/07 10:04:03;;;;;;;13.27;11.60;;;;;;;20.54;100.00;101626.53;5094855;27;20031;-73
2023/05/07 10:06:30;;;;;;;13.63;12.20;;;;;;;20.59;100.00;101625.97;5094312;27;20027;-73
2023/05/07 10:08:56;;;;;;;15.73;12.95;;;;;;;20.60;100.00;101627.66;5092641;28;20146;-73
2023/05/07 10:11:22;;;;;;;13.55;12.30;;;;;;;20.84;100.00;101625.66;5100007;28;20114;-73
2023/05/07 10:13:48;;;;;;;14.48;13.07;;;;;;;20.82;100.00;101628.56;5093610;28;20027;-73
2023/05/07 10:16:14;;;;;;;13.88;12.63;;;;;;;20.99;100.00;101626.47;5091747;27;20549;-73
2023/05/07 10:18:40;;;;;;;12.18;11.07;;;;;;;21.18;100.00;101621.41;5094016;27;20502;-73
2023/05/07 10:21:18;;;;;;;12.20;11.00;;;;;;;21.38;100.00;101622.44;5096640;28;20031;-73
2023/05/07 10:24:06;;;;;;;12.90;11.70;;;;;;;21.81;100.00;101622.41;5099071;28;20024;-73
2023/05/07 10:26:33;;;;;;;13.23;11.82;;;;;;;22.03;100.00;101620.44;5091306;28;20039;-73
2023/05/07 10:29:05;;;;;;;13.48;12.18;;;;;;;22.41;100.00;101619.25;5091696;28;20039;-73
2023/05/07 10:31:39;;;;;;;12.23;11.05;;;;;;;22.66;100.00;101623.09;5093059;28;20036;-73
2023/05/07 10:34:12;;;;;;;13.68;12.35;;;;;;;23.02;100.00;101618.38;5093350;28;20077;-74
2023/05/07 10:36:38;;;;;;;11.55;10.35;;;;;;;22.92;100.00;101624.22;5098759;27;20073;-73
2023/05/07 10:39:06;;;;;;;12.23;10.52;;;;;;;22.98;100.00;101620.69;5097867;27;20065;-74
2023/05/07 10:41:31;;;;;;;12.05;10.40;;;;;;;23.11;100.00;101616.34;5093748;27;20103;-74
2023/05/07 10:43:57;;;;;;;14.30;10.18;;;;;;;23.34;100.00;101626.84;5100831;27;20106;-73
2023/05/07 10:46:22;;;;;;;12.13;11.02;;;;;;;23.19;100.00;101618.84;5097896;28;20575;-73
2023/05/07 10:49:00;;;;;;;11.25;10.15;;;;;;;23.37;100.00;101621.81;5093949;27;20554;-74
2023/05/07 10:51:26;;;;;;;12.27;10.63;;;;;;;23.14;100.00;101616.78;5095586;28;20470;-73
2023/05/07 10:54:26;;;;;;;10.93;9.88;;;;;;;23.56;100.00;101616.56;5095655;27;20058;-73
2023/05/07 10:56:52;;;;;;;10.43;9.30;;;;;;;23.20;100.00;101623.25;5055384;27;20044;-73
2023/05/07 10:59:20;;;;;;;12.10;9.82;;;;;;;23.30;100.00;101623.69;5096737;28;20027;-73
2023/05/07 11:02:03;;;;;;;12.43;10.07;;;;;;;23.42;100.00;101623.88;5090712;28;20077;-73
2023/05/07 11:04:31;;;;;;;11.07;10.18;;;;;;;23.22;100.00;101615.72;5096726;27;20015;-73
2023/05/07 11:07:08;;;;;;;10.18;9.00;;;;;;;23.54;100.00;101626.81;5096227;27;20027;-73
2023/05/07 11:09:52;;;;;;;9.77;8.70;;;;;;;23.60;100.00;101623.28;5099371;27;20069;-74
2023/05/07 11:12:35;;;;;;;9.57;7.97;;;;;;;23.60;100.00;101626.00;5102817;28;20035;-73